createdAt,value
2017-07-30T00:01:31.879Z,80.80
2017-07-30T00:03:59.380Z,80.50
2017-07-30T00:06:26.904Z,80.30
2017-07-30T00:08:54.438Z,80.40
2017-07-30T00:11:21.974Z,80.30
2017-07-30T00:13:49.717Z,81.20
2017-07-30T00:16:17.248Z,82.50
2017-07-30T00:18:44.762Z,81.60
2017-07-30T00:21:12.294Z,82.40
2017-07-30T00:23:39.810Z,82.10
2017-07-30T00:26:07.344Z,82.00
2017-07-30T00:28:34.844Z,82.10
2017-07-30T00:31:02.369Z,81.80
2017-07-30T00:33:29.874Z,81.80
2017-07-30T00:35:57.397Z,81.80
2017-07-30T00:38:24.904Z,81.80
2017-07-30T00:40:52.444Z,81.60
2017-07-30T00:43:19.944Z,81.70
2017-07-30T00:45:47.473Z,81.50
2017-07-30T00:48:14.980Z,81.70
2017-07-30T00:50:42.489Z,81.70
2017-07-30T00:53:10.021Z,81.50
2017-07-30T00:55:37.518Z,81.90
2017-07-30T00:58:05.035Z,81.80
2017-07-30T01:00:32.542Z,81.80
2017-07-30T01:03:00.069Z,81.60
2017-07-30T01:05:27.583Z,82.30
2017-07-30T01:07:55.109Z,82.10
2017-07-30T01:10:22.605Z,82.10
2017-07-30T01:12:50.132Z,82.20
2017-07-30T01:15:17.636Z,82.10
2017-07-30T01:17:45.164Z,81.90
2017-07-30T01:20:12.725Z,81.60
2017-07-30T01:22:40.238Z,82.10
2017-07-30T01:25:07.735Z,81.90
2017-07-30T01:27:35.257Z,82.10
2017-07-30T01:30:02.771Z,81.80
2017-07-30T01:32:30.293Z,82.20
2017-07-30T01:34:57.802Z,82.40
2017-07-30T01:37:25.318Z,82.20
2017-07-30T01:39:52.828Z,82.80
2017-07-30T01:42:20.349Z,82.80
2017-07-30T01:44:47.844Z,83.50
2017-07-30T01:47:15.369Z,82.90
2017-07-30T01:49:42.874Z,83.30
2017-07-30T01:52:10.403Z,83.30
2017-07-30T01:54:37.912Z,83.40
2017-07-30T01:57:05.434Z,83.40
2017-07-30T01:59:32.949Z,83.70
2017-07-30T02:02:00.490Z,83.50
2017-07-30T02:04:28.001Z,83.60
2017-07-30T02:06:55.521Z,83.70
2017-07-30T02:09:23.017Z,83.80
2017-07-30T02:11:50.559Z,83.70
2017-07-30T02:14:18.069Z,83.90
2017-07-30T02:16:45.594Z,83.30
2017-07-30T02:19:13.101Z,83.30
2017-07-30T02:21:40.626Z,83.40
2017-07-30T02:24:08.176Z,83.40
2017-07-30T02:26:35.717Z,83.20
2017-07-30T02:29:03.217Z,83.00
2017-07-30T02:31:30.744Z,83.40
2017-07-30T02:33:58.289Z,83.80
2017-07-30T02:36:25.805Z,83.90
2017-07-30T02:38:53.321Z,83.90
2017-07-30T02:41:20.842Z,84.10
2017-07-30T02:43:48.370Z,84.30
2017-07-30T02:46:15.924Z,84.60
2017-07-30T02:48:43.527Z,84.80
2017-07-30T02:51:11.097Z,84.70
2017-07-30T02:53:38.648Z,84.70
2017-07-30T02:56:06.183Z,84.80
2017-07-30T02:58:33.700Z,84.80
2017-07-30T03:01:01.243Z,84.60
2017-07-30T03:03:28.752Z,84.40
2017-07-30T03:05:56.289Z,84.50
2017-07-30T03:08:23.788Z,84.60
2017-07-30T03:10:51.321Z,84.30
2017-07-30T03:13:18.851Z,84.50
2017-07-30T03:15:46.349Z,84.50
2017-07-30T03:18:13.869Z,84.70
2017-07-30T03:20:41.368Z,84.50
2017-07-30T03:23:08.887Z,84.40
2017-07-30T03:25:36.373Z,84.60
2017-07-30T03:28:03.896Z,84.60
2017-07-30T03:30:31.393Z,84.20
2017-07-30T03:32:58.921Z,85.00
2017-07-30T03:35:26.417Z,84.10
2017-07-30T03:37:53.928Z,84.00
2017-07-30T03:40:21.428Z,84.00
2017-07-30T03:42:48.950Z,83.80
2017-07-30T03:45:16.492Z,83.70
2017-07-30T03:47:44.011Z,83.80
2017-07-30T03:50:11.512Z,83.40
2017-07-30T03:52:39.040Z,83.80
2017-07-30T03:55:06.537Z,83.80
2017-07-30T03:57:34.063Z,83.50
2017-07-30T04:00:01.564Z,83.40
2017-07-30T04:02:29.067Z,83.30
2017-07-30T04:04:56.573Z,83.50
2017-07-30T04:07:24.096Z,83.20
2017-07-30T04:09:51.597Z,83.10
2017-07-30T04:12:19.149Z,82.90
2017-07-30T04:14:46.658Z,82.80
2017-07-30T04:17:14.168Z,82.70
2017-07-30T04:19:41.661Z,82.30
2017-07-30T04:22:09.184Z,82.40
2017-07-30T04:24:36.681Z,82.30
2017-07-30T04:27:04.204Z,82.10
2017-07-30T04:29:31.704Z,82.30
2017-07-30T04:31:59.228Z,82.40
2017-07-30T04:34:26.960Z,82.20
2017-07-30T04:36:54.496Z,82.00
2017-07-30T04:39:22.000Z,82.10
2017-07-30T04:41:49.516Z,81.30
2017-07-30T04:44:17.012Z,78.80
2017-07-30T04:46:44.556Z,76.40
2017-07-30T04:49:12.105Z,75.50
2017-07-30T04:51:39.660Z,74.60
2017-07-30T04:54:07.176Z,75.30
2017-07-30T04:56:34.705Z,76.20
2017-07-30T04:59:02.215Z,77.40
2017-07-30T05:01:29.733Z,78.50
2017-07-30T05:03:57.237Z,79.00
2017-07-30T05:06:24.757Z,79.00
2017-07-30T05:08:52.264Z,78.60
2017-07-30T05:11:19.857Z,76.60
2017-07-30T05:13:47.390Z,73.70
2017-07-30T05:16:14.925Z,69.60
2017-07-30T05:18:42.434Z,66.40
2017-07-30T05:21:09.971Z,64.10
2017-07-30T05:23:37.474Z,61.80
2017-07-30T05:26:05.050Z,61.10
2017-07-30T05:28:32.597Z,60.40
2017-07-30T05:31:00.105Z,58.70
2017-07-30T05:33:27.669Z,58.90
2017-07-30T05:35:55.201Z,58.20
2017-07-30T05:38:22.757Z,58.50
2017-07-30T05:40:50.287Z,58.30
2017-07-30T05:43:17.877Z,57.20
2017-07-30T05:45:45.454Z,57.10
2017-07-30T05:48:13.029Z,56.60
2017-07-30T05:50:40.553Z,56.60
2017-07-30T05:53:08.146Z,55.70
2017-07-30T05:55:35.745Z,55.90
2017-07-30T05:58:03.270Z,55.80
2017-07-30T06:00:30.787Z,55.00
2017-07-30T06:02:58.315Z,54.90
2017-07-30T06:05:25.818Z,53.80
2017-07-30T06:07:53.349Z,53.20
2017-07-30T06:10:20.854Z,51.90
2017-07-30T06:12:48.669Z,52.60
2017-07-30T06:15:16.438Z,51.90
2017-07-30T06:17:44.383Z,51.30
2017-07-30T06:20:12.017Z,51.10
2017-07-30T06:22:39.536Z,50.90
2017-07-30T06:25:07.067Z,50.60
2017-07-30T06:27:34.853Z,51.00
2017-07-30T06:30:02.358Z,51.00
2017-07-30T06:32:29.935Z,50.00
2017-07-30T06:34:57.445Z,50.60
2017-07-30T06:37:25.030Z,51.00
2017-07-30T06:39:52.566Z,51.20
2017-07-30T06:42:20.114Z,51.90
2017-07-30T06:44:47.661Z,52.30
2017-07-30T06:47:15.233Z,53.60
2017-07-30T06:49:42.893Z,55.40
2017-07-30T06:52:10.451Z,56.40
2017-07-30T06:54:37.975Z,57.30
2017-07-30T06:57:05.601Z,58.70
2017-07-30T06:59:33.161Z,59.30
2017-07-30T07:02:00.804Z,62.40
2017-07-30T07:04:28.365Z,61.60
2017-07-30T07:06:55.892Z,61.30
2017-07-30T07:09:23.449Z,63.20
2017-07-30T07:11:51.013Z,64.10
2017-07-30T07:14:18.545Z,62.90
2017-07-30T07:16:46.807Z,64.00
2017-07-30T07:19:14.361Z,62.90
2017-07-30T07:21:42.002Z,63.80
2017-07-30T07:24:10.628Z,62.70
2017-07-30T07:26:38.156Z,63.10
2017-07-30T07:29:05.644Z,63.60
2017-07-30T07:31:36.824Z,63.30
2017-07-30T07:34:04.329Z,64.30
2017-07-30T07:36:31.849Z,63.40
2017-07-30T07:38:59.358Z,63.90
2017-07-30T07:41:26.890Z,62.90
2017-07-30T07:43:54.411Z,63.00
2017-07-30T07:46:21.963Z,63.90
2017-07-30T07:48:49.456Z,65.30
2017-07-30T07:51:16.960Z,64.30
2017-07-30T07:53:44.480Z,64.10
2017-07-30T07:56:12.919Z,63.10
2017-07-30T07:58:40.437Z,63.50
2017-07-30T08:01:07.933Z,63.70
2017-07-30T08:03:35.449Z,63.80
2017-07-30T08:06:02.945Z,62.70
2017-07-30T08:08:30.468Z,63.50
2017-07-30T08:10:57.982Z,62.20
2017-07-30T08:13:25.500Z,62.90
2017-07-30T08:15:53.000Z,64.60
2017-07-30T08:18:20.516Z,63.80
2017-07-30T08:20:48.019Z,63.30
2017-07-30T08:23:15.552Z,63.20
2017-07-30T08:25:43.049Z,61.60
2017-07-30T08:28:10.575Z,61.30
2017-07-30T08:30:38.099Z,61.30
2017-07-30T08:33:05.613Z,62.70
2017-07-30T08:35:35.105Z,63.00
2017-07-30T08:38:02.630Z,62.20
2017-07-30T08:40:33.281Z,61.50
2017-07-30T08:43:00.813Z,62.00
2017-07-30T08:45:28.312Z,61.90
2017-07-30T08:47:55.839Z,61.60
2017-07-30T08:50:23.338Z,62.10
2017-07-30T08:52:50.853Z,61.10
2017-07-30T08:55:18.361Z,61.80
2017-07-30T08:57:45.889Z,62.00
2017-07-30T09:00:13.386Z,63.60
2017-07-30T09:02:40.918Z,61.10
2017-07-30T09:05:08.418Z,59.90
2017-07-30T09:07:35.940Z,60.00
2017-07-30T09:10:03.433Z,59.60
2017-07-30T09:12:30.956Z,60.10
2017-07-30T09:14:58.453Z,59.90
2017-07-30T09:17:25.976Z,60.30
2017-07-30T09:19:53.503Z,58.80
2017-07-30T09:22:21.021Z,59.40
2017-07-30T09:24:48.508Z,59.50
2017-07-30T09:27:16.056Z,58.80
2017-07-30T09:29:43.582Z,58.10
2017-07-30T09:32:11.107Z,59.30
2017-07-30T09:34:38.625Z,59.80
2017-07-30T09:37:06.159Z,59.30
2017-07-30T09:39:36.940Z,58.50
2017-07-30T09:42:04.468Z,58.60
2017-07-30T09:44:32.201Z,57.90
2017-07-30T09:46:59.757Z,59.10
2017-07-30T09:49:27.360Z,58.50
2017-07-30T09:51:54.902Z,58.90
2017-07-30T09:54:22.442Z,58.30
2017-07-30T09:56:49.938Z,56.70
2017-07-30T09:59:17.461Z,56.60
2017-07-30T10:01:44.962Z,57.30
2017-07-30T10:04:12.485Z,56.20
2017-07-30T10:06:39.978Z,56.40
2017-07-30T10:09:07.505Z,55.30
2017-07-30T10:11:35.017Z,55.60
2017-07-30T10:14:02.554Z,54.80
2017-07-30T10:16:30.037Z,54.10
2017-07-30T10:18:57.553Z,53.30
2017-07-30T10:21:25.059Z,53.90
2017-07-30T10:23:52.590Z,54.70
2017-07-30T10:26:25.923Z,55.50
2017-07-30T10:28:53.456Z,56.30
2017-07-30T10:31:20.956Z,55.50
2017-07-30T10:33:48.501Z,55.30
2017-07-30T10:36:16.965Z,56.00
2017-07-30T10:38:47.705Z,56.80
2017-07-30T10:41:15.206Z,55.60
2017-07-30T10:43:42.721Z,55.80
2017-07-30T10:46:11.193Z,56.00
2017-07-30T10:48:38.712Z,56.50
2017-07-30T10:51:06.215Z,55.80
2017-07-30T10:53:33.728Z,55.40
2017-07-30T10:56:01.242Z,54.60
2017-07-30T10:58:28.765Z,54.90
2017-07-30T11:00:56.256Z,55.20
2017-07-30T11:03:23.768Z,54.90
2017-07-30T11:05:51.273Z,56.50
2017-07-30T11:08:18.789Z,56.30
2017-07-30T11:10:46.302Z,54.90
2017-07-30T11:13:13.822Z,55.70
2017-07-30T11:15:42.321Z,55.10
2017-07-30T11:18:09.840Z,54.70
2017-07-30T11:20:37.333Z,53.50
2017-07-30T11:23:04.849Z,53.30
2017-07-30T11:25:36.657Z,53.20
2017-07-30T11:28:04.177Z,55.00
2017-07-30T11:30:32.408Z,52.80
2017-07-30T11:32:59.912Z,52.40
2017-07-30T11:35:30.669Z,53.30
2017-07-30T11:37:58.189Z,52.70
2017-07-30T11:40:25.685Z,53.30
2017-07-30T11:42:53.198Z,53.90
2017-07-30T11:45:22.650Z,53.90
2017-07-30T11:47:50.176Z,54.10
2017-07-30T11:50:17.665Z,52.40
2017-07-30T11:52:45.185Z,51.30
2017-07-30T11:55:12.681Z,52.50
2017-07-30T11:57:40.198Z,51.90
2017-07-30T12:00:07.701Z,51.40
2017-07-30T12:02:35.217Z,51.20
2017-07-30T12:05:02.716Z,52.50
2017-07-30T12:07:30.226Z,52.90
2017-07-30T12:09:57.725Z,53.40
2017-07-30T12:12:25.245Z,55.00
2017-07-30T12:14:52.753Z,54.40
2017-07-30T12:17:20.259Z,55.40
2017-07-30T12:19:51.286Z,56.40
2017-07-30T12:22:18.798Z,56.20
2017-07-30T12:24:46.292Z,56.30
2017-07-30T12:27:13.812Z,57.00
2017-07-30T12:29:41.316Z,57.00
2017-07-30T12:32:08.868Z,55.50
2017-07-30T12:34:39.759Z,55.80
2017-07-30T12:37:07.281Z,56.10
2017-07-30T12:39:34.787Z,55.60
2017-07-30T12:42:02.354Z,56.20
2017-07-30T12:44:29.906Z,56.30
2017-07-30T12:46:57.433Z,55.90
2017-07-30T12:49:24.960Z,55.50
2017-07-30T12:51:52.464Z,56.00
2017-07-30T12:54:19.985Z,56.10
2017-07-30T12:56:47.508Z,56.90
2017-07-30T12:59:15.024Z,56.60
2017-07-30T13:01:42.527Z,56.70
2017-07-30T13:04:16.938Z,58.70
2017-07-30T13:06:44.441Z,56.20
2017-07-30T13:09:11.969Z,55.80
2017-07-30T13:11:39.472Z,54.50
2017-07-30T13:14:07.004Z,54.00
2017-07-30T13:16:34.500Z,54.20
2017-07-30T13:19:02.071Z,53.50
2017-07-30T13:21:29.588Z,51.70
2017-07-30T13:23:57.106Z,51.10
2017-07-30T13:26:24.613Z,51.20
2017-07-30T13:28:55.510Z,53.10
2017-07-30T13:31:23.006Z,51.20
2017-07-30T13:33:50.534Z,50.90
2017-07-30T13:36:20.018Z,51.50
2017-07-30T13:38:47.565Z,52.00
2017-07-30T13:41:18.761Z,52.90
2017-07-30T13:43:46.281Z,53.70
2017-07-30T13:46:20.677Z,51.20
2017-07-30T13:48:48.222Z,52.40
2017-07-30T13:51:15.744Z,52.70
2017-07-30T13:53:43.277Z,53.50
2017-07-30T13:59:28.302Z,52.50
2017-07-30T14:01:55.794Z,52.20
2017-07-30T14:04:23.332Z,54.10
2017-07-30T14:06:50.846Z,53.70
2017-07-30T14:09:18.368Z,53.40
2017-07-30T14:11:45.865Z,53.90
2017-07-30T14:14:13.393Z,54.80
2017-07-30T14:16:40.880Z,56.30
2017-07-30T14:19:08.403Z,56.90
2017-07-30T14:21:35.916Z,58.50
2017-07-30T14:24:03.475Z,59.30
2017-07-30T14:26:30.992Z,60.40
2017-07-30T14:28:58.546Z,61.50
2017-07-30T14:31:26.063Z,63.10
2017-07-30T14:33:53.599Z,62.50
2017-07-30T14:36:21.113Z,63.30
2017-07-30T14:38:48.629Z,64.40
2017-07-30T14:41:19.692Z,64.20
2017-07-30T14:43:47.221Z,63.60
2017-07-30T14:46:15.668Z,63.40
2017-07-30T14:48:43.193Z,64.30
2017-07-30T14:51:10.694Z,64.40
2017-07-30T14:53:38.228Z,65.10
2017-07-30T14:56:05.720Z,65.10
2017-07-30T14:58:33.261Z,65.50
2017-07-30T15:01:00.778Z,66.70
2017-07-30T15:03:28.300Z,66.80
2017-07-30T15:05:55.820Z,66.20
2017-07-30T15:08:23.365Z,66.30
2017-07-30T15:10:50.857Z,65.10
2017-07-30T15:13:18.388Z,63.70
2017-07-30T15:15:45.890Z,63.00
2017-07-30T15:18:13.424Z,61.80
2017-07-30T15:20:40.934Z,63.00
2017-07-30T15:23:08.450Z,62.10
2017-07-30T15:25:48.566Z,61.00
2017-07-30T15:28:16.093Z,61.90
2017-07-30T15:30:43.580Z,62.10
2017-07-30T15:33:11.094Z,62.30
2017-07-30T15:35:41.796Z,63.60
2017-07-30T15:38:09.313Z,63.80
2017-07-30T15:40:36.813Z,62.20
2017-07-30T15:43:04.325Z,61.90
2017-07-30T15:45:31.821Z,61.80
2017-07-30T15:47:59.362Z,61.20
2017-07-30T15:50:26.877Z,60.50
2017-07-30T15:52:54.389Z,61.50
2017-07-30T15:55:21.894Z,60.70
2017-07-30T15:57:49.421Z,61.40
2017-07-30T16:00:16.922Z,60.60
2017-07-30T16:02:44.445Z,61.80
2017-07-30T16:05:11.960Z,62.90
2017-07-30T16:07:39.478Z,62.50
2017-07-30T16:10:07.010Z,63.00
2017-07-30T16:12:34.589Z,62.30
2017-07-30T16:15:02.153Z,62.80
2017-07-30T16:17:29.713Z,64.00
2017-07-30T16:19:57.266Z,63.40
2017-07-30T16:22:24.804Z,64.20
2017-07-30T16:24:52.326Z,63.70
2017-07-30T16:27:19.880Z,63.60
2017-07-30T16:29:47.394Z,63.70
2017-07-30T16:32:14.925Z,63.30
2017-07-30T16:34:42.434Z,63.40
2017-07-30T16:37:09.970Z,62.70
2017-07-30T16:39:37.546Z,62.60
2017-07-30T16:42:05.070Z,62.70
2017-07-30T16:44:32.651Z,61.00
2017-07-30T16:47:00.162Z,62.10
2017-07-30T16:49:27.700Z,62.20
2017-07-30T16:51:55.238Z,62.90
2017-07-30T16:54:22.786Z,61.60
2017-07-30T16:56:50.294Z,63.10
2017-07-30T16:59:17.836Z,62.00
2017-07-30T17:01:45.354Z,60.70
2017-07-30T17:04:12.941Z,61.00
2017-07-30T17:06:40.453Z,62.40
2017-07-30T17:09:08.001Z,62.50
2017-07-30T17:11:35.522Z,62.40
2017-07-30T17:14:03.067Z,62.10
2017-07-30T17:16:30.595Z,63.10
2017-07-30T17:18:58.146Z,62.20
2017-07-30T17:21:25.648Z,63.50
2017-07-30T17:23:53.173Z,63.50
2017-07-30T17:26:20.684Z,62.20
2017-07-30T17:28:48.213Z,62.20
2017-07-30T17:31:15.725Z,63.20
2017-07-30T17:33:43.252Z,63.90
2017-07-30T17:36:10.769Z,63.90
2017-07-30T17:38:38.291Z,63.90
2017-07-30T17:41:05.801Z,64.50
2017-07-30T17:43:33.324Z,64.20
2017-07-30T17:46:00.834Z,64.30
2017-07-30T17:48:28.379Z,63.80
2017-07-30T17:50:55.890Z,63.80
2017-07-30T17:53:23.416Z,64.70
2017-07-30T17:55:50.950Z,65.70
2017-07-30T17:58:18.472Z,66.60
2017-07-30T18:00:46.025Z,66.90
2017-07-30T18:03:13.568Z,66.90
2017-07-30T18:05:41.091Z,68.30
2017-07-30T18:08:08.630Z,68.50
2017-07-30T18:10:36.155Z,68.50
2017-07-30T18:13:03.698Z,68.60
2017-07-30T18:15:31.235Z,69.10
2017-07-30T18:17:58.766Z,68.50
2017-07-30T18:20:26.291Z,68.60
2017-07-30T18:22:53.833Z,65.90
2017-07-30T18:25:21.367Z,68.60
2017-07-30T18:27:48.897Z,67.30
2017-07-30T18:30:16.426Z,66.70
2017-07-30T18:32:46.387Z,66.40
2017-07-30T18:35:13.938Z,66.40
2017-07-30T18:37:41.480Z,66.50
2017-07-30T18:40:08.977Z,66.40
2017-07-30T18:42:36.508Z,67.10
2017-07-30T18:45:04.005Z,68.30
2017-07-30T18:47:31.521Z,68.50
2017-07-30T18:49:59.024Z,67.80
2017-07-30T18:52:26.532Z,68.80
2017-07-30T18:54:54.043Z,70.40
2017-07-30T18:57:21.561Z,71.60
2017-07-30T18:59:49.068Z,71.70
2017-07-30T19:02:16.588Z,70.70
2017-07-30T19:04:44.108Z,70.50
2017-07-30T19:07:11.621Z,69.70
2017-07-30T19:09:39.134Z,70.50
2017-07-30T19:12:06.633Z,72.30
2017-07-30T19:14:34.168Z,72.20
2017-07-30T19:17:01.674Z,73.30
2017-07-30T19:19:29.185Z,73.40
2017-07-30T19:21:56.688Z,72.40
2017-07-30T19:24:24.204Z,72.70
2017-07-30T19:26:51.709Z,75.10
2017-07-30T19:29:19.229Z,76.90
2017-07-30T19:31:46.741Z,78.80
2017-07-30T19:34:14.265Z,80.00
2017-07-30T19:36:41.775Z,80.60
2017-07-30T19:39:09.296Z,81.30
2017-07-30T19:41:36.799Z,82.50
2017-07-30T19:44:04.327Z,82.90
2017-07-30T19:46:31.846Z,83.10
2017-07-30T19:48:59.369Z,82.90
2017-07-30T19:51:26.879Z,83.40
2017-07-30T19:53:54.402Z,83.80
2017-07-30T19:56:21.910Z,84.60
2017-07-30T19:58:49.436Z,85.20
2017-07-30T20:01:16.945Z,85.40
2017-07-30T20:03:44.454Z,85.70
2017-07-30T20:06:11.977Z,86.00
2017-07-30T20:08:39.511Z,86.00
2017-07-30T20:11:07.027Z,86.20
2017-07-30T20:13:34.544Z,86.20
2017-07-30T20:16:02.071Z,86.00
2017-07-30T20:18:29.598Z,86.60
2017-07-30T20:20:57.130Z,86.60
2017-07-30T20:23:24.650Z,86.60
2017-07-30T20:25:52.294Z,86.20
2017-07-30T20:28:19.866Z,86.10
2017-07-30T20:30:47.519Z,86.60
2017-07-30T20:33:20.966Z,87.30
2017-07-30T20:35:49.506Z,88.10
2017-07-30T20:38:17.123Z,88.10
2017-07-30T20:40:44.825Z,88.90
2017-07-30T20:43:12.514Z,89.50
2017-07-30T20:45:42.096Z,90.30
2017-07-30T20:48:09.653Z,90.10
2017-07-30T20:50:38.192Z,90.30
2017-07-30T20:53:05.856Z,90.60
2017-07-30T20:55:40.492Z,90.60
2017-07-30T20:58:32.083Z,90.80
2017-07-30T21:00:59.732Z,91.10
2017-07-30T21:03:27.283Z,91.40
2017-07-30T21:05:54.862Z,91.50
2017-07-30T21:08:22.433Z,91.30
2017-07-30T21:10:50.008Z,91.10
2017-07-30T21:13:17.550Z,91.10
2017-07-30T21:15:46.067Z,91.10
2017-07-30T21:18:13.656Z,91.00
2017-07-30T21:20:41.231Z,91.00
2017-07-30T21:23:08.788Z,91.00
2017-07-30T21:25:36.581Z,90.90
2017-07-30T21:28:04.154Z,90.80
2017-07-30T21:30:31.764Z,90.70
2017-07-30T21:32:59.569Z,90.80
2017-07-30T21:35:29.375Z,90.70
2017-07-30T21:37:57.004Z,90.70
2017-07-30T21:40:24.624Z,90.80
2017-07-30T21:42:55.079Z,90.60
2017-07-30T21:45:22.678Z,90.70
2017-07-30T21:47:50.290Z,91.00
2017-07-30T21:50:17.927Z,90.70
2017-07-30T21:52:45.574Z,90.90
2017-07-30T21:55:17.735Z,90.90
2017-07-30T21:57:45.337Z,90.80
2017-07-30T22:00:12.942Z,91.00
2017-07-30T22:02:40.515Z,90.70
2017-07-30T22:05:08.285Z,91.00
2017-07-30T22:07:35.924Z,90.90
2017-07-30T22:10:03.512Z,91.00
2017-07-30T22:12:31.129Z,91.40
2017-07-30T22:14:58.678Z,91.50
2017-07-30T22:17:26.238Z,91.70
2017-07-30T22:19:53.790Z,91.60
2017-07-30T22:22:21.667Z,91.70
2017-07-30T22:24:49.193Z,91.80
2017-07-30T22:27:16.788Z,92.10
2017-07-30T22:29:44.418Z,92.30
2017-07-30T22:32:12.051Z,92.60
2017-07-30T22:34:39.669Z,92.50
2017-07-30T22:37:07.245Z,92.80
2017-07-30T22:39:34.804Z,92.70
2017-07-30T22:42:02.385Z,92.50
2017-07-30T22:44:29.929Z,92.30
2017-07-30T22:46:57.525Z,92.30
2017-07-30T22:49:25.039Z,92.10
2017-07-30T22:51:52.643Z,92.00
2017-07-30T22:54:20.165Z,92.10
2017-07-30T22:56:47.748Z,92.00
2017-07-30T22:59:15.318Z,92.10
2017-07-30T23:01:42.905Z,92.30
2017-07-30T23:04:10.501Z,92.30
2017-07-30T23:06:38.036Z,92.50
2017-07-30T23:09:05.633Z,92.50
2017-07-30T23:11:33.166Z,92.50
2017-07-30T23:14:03.989Z,92.50
2017-07-30T23:16:31.523Z,92.60
2017-07-30T23:18:59.057Z,92.70
2017-07-30T23:21:27.456Z,92.60
2017-07-30T23:23:55.036Z,92.30
2017-07-30T23:26:22.558Z,92.10
2017-07-30T23:28:50.097Z,91.10
2017-07-30T23:31:17.641Z,91.10
2017-07-30T23:33:45.201Z,91.10
2017-07-30T23:36:13.651Z,90.10
2017-07-30T23:38:41.215Z,90.50
2017-07-30T23:41:08.739Z,90.20
2017-07-30T23:43:36.306Z,90.00
2017-07-30T23:46:05.849Z,89.90
2017-07-30T23:48:33.402Z,89.40
2017-07-30T23:51:00.922Z,89.10
2017-07-30T23:53:28.525Z,89.30
2017-07-30T23:55:59.972Z,89.60
2017-07-30T23:58:27.528Z,89.50
